Time;durP1;ratioP1;P1;durP2;ratioP2;P2;SDS_P1;SDS_P2;PMS_P1;PMS_P2;Temp;Humidity;BMP_temperature;BMP_pressure;BME280_temperature;BME280_humidity;BME280_pressure;Samples;Min_cycle;Max_cycle;Signal;HPM_P1;HPM_P2
2022/05/09 00:00:29;;;;;;;5.37;3.90;;;12.30;99.90;;;13.26;100.00;98967.06;5018972;28;20463;-76
2022/05/09 00:02:59;;;;;;;24.60;4.43;;;12.30;99.90;;;13.24;100.00;98971.72;5019936;28;20538;-76
2022/05/09 00:05:30;;;;;;;9.37;4.30;;;12.30;99.90;;;13.21;100.00;98969.44;5018674;28;20453;-76
2022/05/09 00:08:00;;;;;;;6.33;3.90;;;12.30;99.90;;;13.21;100.00;98969.44;5018073;28;20462;-77
2022/05/09 00:10:29;;;;;;;8.07;4.47;;;12.30;99.90;;;13.18;100.00;98964.56;5017433;28;20467;-77
2022/05/09 00:12:58;;;;;;;5.10;4.33;;;12.20;99.90;;;13.18;100.00;98964.56;5015754;28;20503;-76
2022/05/09 00:15:30;;;;;;;5.50;4.20;;;12.20;99.90;;;13.15;100.00;98964.09;5020680;28;20463;-77
2022/05/09 00:18:01;;;;;;;4.60;3.73;;;12.20;99.90;;;13.13;100.00;98953.78;5021106;28;20581;-77
2022/05/09 00:20:31;;;;;;;4.70;3.67;;;12.10;99.90;;;13.09;100.00;98955.13;5021921;28;20582;-77
2022/05/09 00:23:00;;;;;;;8.00;4.33;;;12.10;99.90;;;13.06;100.00;98955.44;5021877;28;20462;-77
2022/05/09 00:25:30;;;;;;;4.70;4.00;;;12.10;99.90;;;13.01;100.00;98963.06;5021401;28;20496;-77
2022/05/09 00:28:00;;;;;;;6.43;4.07;;;12.10;99.90;;;12.98;100.00;98953.72;5022477;28;20835;-77
2022/05/09 00:30:32;;;;;;;7.40;4.07;;;12.00;99.90;;;12.98;100.00;98955.56;5021764;28;20459;-77
2022/05/09 00:33:02;;;;;;;7.43;4.73;;;12.00;99.90;;;12.99;100.00;98952.72;5020773;28;20462;-77
2022/05/09 00:35:32;;;;;;;5.37;4.10;;;12.00;99.90;;;12.95;100.00;98961.13;5021897;28;20453;-76
2022/05/09 00:38:02;;;;;;;6.17;4.87;;;11.90;99.90;;;12.95;100.00;98954.09;5021986;28;20887;-77
2022/05/09 00:40:32;;;;;;;5.90;3.90;;;11.90;99.90;;;12.93;100.00;98952.63;5021092;28;20469;-77
2022/05/09 00:43:02;;;;;;;6.80;3.87;;;11.90;99.90;;;12.90;100.00;98951.19;5019516;28;20516;-76
2022/05/09 00:45:34;;;;;;;8.07;4.70;;;11.90;99.90;;;12.84;100.00;98965.00;5020991;28;20468;-77
2022/05/09 00:48:06;;;;;;;5.73;3.70;;;11.90;99.90;;;12.84;100.00;98964.22;5018702;28;20473;-76
2022/05/09 00:50:37;;;;;;;7.50;4.13;;;11.80;99.90;;;12.80;100.00;98963.78;5019701;28;20466;-77
2022/05/09 00:53:12;;;;;;;5.53;4.10;;;11.80;99.90;;;12.78;100.00;98959.66;5021549;28;20500;-77
2022/05/09 00:55:48;;;;;;;11.23;4.20;;;11.80;99.90;;;12.74;100.00;98959.22;5022746;28;20474;-77
2022/05/09 00:58:24;;;;;;;6.67;4.13;;;11.70;99.90;;;12.73;100.00;98956.78;5021055;28;21052;-77
2022/05/09 01:00:58;;;;;;;7.80;3.93;;;11.80;99.90;;;12.71;100.00;98956.13;5020852;28;20457;-77
2022/05/09 01:03:37;;;;;;;5.00;3.80;;;11.70;99.90;;;12.69;100.00;98958.13;5021086;28;20500;-77
2022/05/09 01:06:06;;;;;;;5.10;4.20;;;11.60;99.90;;;12.68;100.00;98959.94;5021552;28;20478;-77
2022/05/09 01:08:36;;;;;;;8.03;4.30;;;11.60;99.90;;;12.66;100.00;98959.31;5020681;28;20461;-77
2022/05/09 01:11:09;;;;;;;11.93;4.40;;;11.60;99.90;;;12.64;100.00;98956.03;5019581;28;20491;-77
2022/05/09 01:13:45;;;;;;;4.73;3.50;;;11.60;99.90;;;12.61;100.00;98959.81;5022459;28;20453;-77
2022/05/09 01:16:19;;;;;;;7.50;3.97;;;11.60;99.90;;;12.57;100.00;98958.53;5018335;28;21090;-76
2022/05/09 01:18:48;;;;;;;6.10;3.70;;;11.50;99.90;;;12.56;100.00;98963.97;5021499;28;20966;-77
2022/05/09 01:21:34;;;;;;;4.23;3.40;;;11.50;99.90;;;12.52;100.00;98963.53;5022025;28;20457;-77
2022/05/09 01:24:07;;;;;;;6.97;3.87;;;11.50;99.90;;;12.50;100.00;98955.00;5019810;28;20466;-77
2022/05/09 01:26:38;;;;;;;6.80;3.67;;;11.50;99.90;;;12.47;100.00;98944.84;5022868;28;20814;-76
2022/05/09 01:29:16;;;;;;;8.13;4.57;;;11.50;99.90;;;12.44;100.00;98954.88;5024756;28;20458;-77
2022/05/09 01:31:50;;;;;;;7.90;3.77;;;11.50;99.90;;;12.42;100.00;98949.84;5026275;28;20477;-77
2022/05/09 01:34:21;;;;;;;12.57;4.37;;;11.40;99.90;;;12.44;100.00;98958.31;5026975;28;20434;-77
2022/05/09 01:37:05;;;;;;;4.80;3.80;;;11.40;99.90;;;12.42;100.00;98957.69;5021691;28;20481;-77
2022/05/09 01:39:36;;;;;;;6.53;4.03;;;11.40;99.90;;;12.36;100.00;98953.13;5018722;28;21069;-76
2022/05/09 01:42:09;;;;;;;9.37;4.00;;;11.40;99.90;;;12.36;100.00;98947.88;5019053;28;20517;-76
2022/05/09 01:44:41;;;;;;;6.17;3.67;;;11.30;99.90;;;12.30;100.00;98953.84;5017821;28;20545;-76
2022/05/09 01:49:57;;;;;;;5.30;4.03;;;11.40;99.90;;;12.25;100.00;98955.38;5017638;28;20474;-76
2022/05/09 01:52:29;;;;;;;6.47;4.10;;;11.30;99.90;;;12.25;100.00;98953.53;5019843;28;20470;-77
2022/05/09 01:54:59;;;;;;;5.40;4.00;;;11.30;99.90;;;12.26;100.00;98949.13;5017203;28;20466;-77
2022/05/09 01:57:30;;;;;;;6.17;4.20;;;11.30;99.90;;;12.24;100.00;98954.56;5020653;28;20494;-77
2022/05/09 02:00:04;;;;;;;10.03;3.70;;;11.20;99.90;;;12.20;100.00;98963.75;5019930;28;20509;-76
2022/05/09 02:02:34;;;;;;;5.13;3.67;;;11.20;99.90;;;12.13;100.00;98964.63;5018924;28;20495;-76
2022/05/09 02:05:05;;;;;;;4.70;3.80;;;11.20;99.90;;;12.11;100.00;98962.19;5019158;28;20471;-77
2022/05/09 02:07:36;;;;;;;5.40;3.80;;;11.10;99.90;;;12.09;100.00;98961.53;5018578;28;21057;-77
2022/05/09 02:10:08;;;;;;;12.93;4.20;;;11.20;99.90;;;12.10;100.00;98968.41;5018795;28;20984;-77
2022/05/09 02:12:37;;;;;;;7.80;3.70;;;11.10;99.90;;;12.08;100.00;98965.13;5019641;28;20462;-76
2022/05/09 02:15:09;;;;;;;4.63;3.47;;;11.00;99.90;;;12.05;100.00;98963.69;5018002;28;20524;-77
2022/05/09 02:17:40;;;;;;;9.90;4.40;;;11.10;99.90;;;11.98;100.00;98964.53;5018817;28;20459;-77
2022/05/09 02:20:12;;;;;;;5.33;3.60;;;11.10;99.90;;;11.95;100.00;98965.72;5018595;28;21047;-76
2022/05/09 02:22:44;;;;;;;6.47;4.27;;;11.00;99.90;;;11.92;100.00;98971.31;5021087;28;20531;-76
2022/05/09 02:25:30;;;;;;;5.80;3.97;;;11.00;99.90;;;11.90;100.00;98962.00;5020368;28;20447;-76
2022/05/09 02:28:01;;;;;;;5.80;3.40;;;11.00;99.90;;;11.90;100.00;98962.81;5015690;28;20477;-77
2022/05/09 02:30:32;;;;;;;5.63;3.93;;;10.90;99.90;;;11.91;100.00;98959.19;5016875;28;20478;-76
2022/05/09 02:33:02;;;;;;;7.97;4.03;;;10.90;99.90;;;11.89;100.00;98970.84;5017579;28;20451;-77
2022/05/09 02:35:33;;;;;;;5.57;3.47;;;11.00;99.90;;;11.88;100.00;98958.72;5018010;28;20463;-77
2022/05/09 02:38:06;;;;;;;9.30;4.27;;;10.90;99.90;;;11.76;100.00;98953.06;5017473;28;20490;-76
2022/05/09 02:40:37;;;;;;;7.87;3.87;;;10.90;99.90;;;11.73;100.00;98960.44;5016620;28;20491;-76
2022/05/09 02:43:07;;;;;;;7.20;4.00;;;10.80;99.90;;;11.72;100.00;98956.19;5017755;28;20605;-77
2022/05/09 02:45:38;;;;;;;5.50;3.90;;;10.80;99.90;;;11.71;100.00;98960.59;5019451;28;20466;-76
2022/05/09 02:48:09;;;;;;;7.67;4.17;;;10.80;99.90;;;11.73;100.00;98960.44;5018484;28;20524;-77
2022/05/09 02:50:39;;;;;;;4.50;3.73;;;10.80;99.90;;;11.70;100.00;98960.75;5019366;28;20533;-76
2022/05/09 02:53:12;;;;;;;7.83;3.67;;;10.80;99.90;;;11.66;100.00;98957.66;5016649;28;20549;-76
2022/05/09 02:55:42;;;;;;;4.37;3.97;;;10.80;99.90;;;11.61;100.00;98959.97;5018957;28;20470;-77
2022/05/09 02:58:12;;;;;;;7.23;4.00;;;10.70;99.90;;;11.60;100.00;98960.94;5015170;28;20470;-76
2022/05/09 03:00:42;;;;;;;4.67;3.80;;;10.70;99.90;;;11.63;100.00;98961.41;5019963;28;20557;-77
2022/05/09 03:05:59;;;;;;;4.57;3.90;;;10.70;99.90;;;11.59;100.00;98967.97;5018344;28;20466;-77
2022/05/09 03:08:31;;;;;;;8.97;4.23;;;10.60;99.90;;;11.56;100.00;98957.84;5018565;28;20463;-76
2022/05/09 03:11:00;;;;;;;6.10;4.40;;;10.70;99.90;;;11.51;100.00;98957.56;5015359;28;20493;-76
2022/05/09 03:13:30;;;;;;;9.60;4.30;;;10.70;99.90;;;11.54;100.00;98959.00;5018444;28;20475;-77
2022/05/09 03:16:01;;;;;;;4.60;3.43;;;10.60;99.90;;;11.51;100.00;98957.56;5016892;28;20470;-77
2022/05/09 03:18:31;;;;;;;4.77;3.67;;;10.60;99.90;;;11.47;100.00;98961.50;5018691;28;20458;-77
2022/05/09 03:21:02;;;;;;;5.87;4.47;;;10.60;99.90;;;11.48;100.00;98965.75;5019301;28;20490;-77
2022/05/09 03:23:33;;;;;;;6.97;3.97;;;10.60;99.90;;;11.45;100.00;98967.91;5018699;28;20838;-76
2022/05/09 03:26:02;;;;;;;4.33;3.13;;;10.50;99.90;;;11.42;100.00;98958.56;5017055;28;20508;-77
2022/05/09 03:28:32;;;;;;;4.10;3.70;;;10.60;99.90;;;11.41;100.00;98956.13;5017857;28;20889;-77
2022/05/09 03:31:04;;;;;;;8.97;3.63;;;10.60;99.90;;;11.36;100.00;98961.88;5018545;28;20521;-77
2022/05/09 03:33:33;;;;;;;4.37;3.83;;;10.60;99.90;;;11.30;100.00;98953.88;5019064;28;20460;-77
2022/05/09 03:36:05;;;;;;;6.37;3.60;;;10.50;99.90;;;11.30;100.00;98959.13;5018659;28;20466;-77
2022/05/09 03:38:35;;;;;;;5.27;3.77;;;10.50;99.90;;;11.31;100.00;98958.13;5016014;28;20463;-77
2022/05/09 03:41:05;;;;;;;5.90;4.00;;;10.40;99.90;;;11.30;100.00;98964.34;5019474;28;20485;-77
2022/05/09 03:43:35;;;;;;;10.07;3.90;;;10.40;99.90;;;11.28;100.00;98961.88;5016986;28;21122;-77
2022/05/09 03:46:05;;;;;;;5.00;3.40;;;10.40;99.90;;;11.23;100.00;98964.22;5017491;28;20447;-77
2022/05/09 03:48:36;;;;;;;5.00;4.07;;;10.40;99.90;;;11.20;100.00;98968.97;5017990;28;20979;-77
2022/05/09 03:51:06;;;;;;;4.80;3.90;;;10.40;99.90;;;11.19;100.00;98965.53;5017387;28;20559;-77
2022/05/09 03:53:37;;;;;;;4.90;3.53;;;10.30;99.90;;;11.17;100.00;98964.88;5021374;28;20440;-76
2022/05/09 03:56:08;;;;;;;3.80;3.50;;;10.30;99.90;;;11.18;100.00;98966.50;5017771;28;20501;-77
2022/05/09 03:58:40;;;;;;;4.23;3.50;;;10.20;99.90;;;11.19;100.00;98965.53;5019742;28;20473;-77
2022/05/09 04:01:11;;;;;;;4.80;4.03;;;10.20;99.90;;;11.20;100.00;98972.41;5019679;28;20499;-77
2022/05/09 04:03:41;;;;;;;10.90;4.00;;;10.20;99.90;;;11.12;100.00;98961.94;5019588;28;20450;-77
2022/05/09 04:06:11;;;;;;;6.13;4.30;;;10.30;99.90;;;11.11;100.00;98976.00;5019952;28;20482;-76
2022/05/09 04:08:41;;;;;;;6.77;4.00;;;10.20;99.90;;;11.13;100.00;98968.00;5019281;28;20485;-77
2022/05/09 04:11:11;;;;;;;4.83;3.30;;;10.20;99.90;;;11.10;100.00;98963.91;5018486;28;20868;-76
2022/05/09 04:13:41;;;;;;;6.50;4.03;;;10.20;99.90;;;11.08;100.00;98966.69;5021203;28;20923;-77
2022/05/09 04:19:00;;;;;;;6.07;4.83;;;10.10;99.90;;;11.07;100.00;98974.72;5015823;28;20961;-77
2022/05/09 04:21:30;;;;;;;6.07;4.53;;;10.20;99.90;;;11.09;100.00;98968.34;5016172;28;20519;-77
2022/05/09 04:24:02;;;;;;;4.73;4.00;;;10.20;99.90;;;11.12;100.00;98967.19;5017674;28;20524;-77
2022/05/09 04:26:32;;;;;;;5.17;4.20;;;10.20;99.90;;;11.13;100.00;98970.63;5018197;28;20486;-77
2022/05/09 04:29:04;;;;;;;6.00;4.50;;;10.10;99.90;;;11.09;100.00;98976.19;5016887;28;20540;-76
2022/05/09 04:31:34;;;;;;;5.00;3.63;;;10.20;99.90;;;11.09;100.00;98973.56;5016788;28;20529;-76
2022/05/09 04:34:05;;;;;;;10.80;5.03;;;10.20;99.90;;;11.09;100.00;98972.75;5018936;28;20451;-76
2022/05/09 04:36:38;;;;;;;5.10;3.90;;;10.10;99.90;;;11.13;100.00;98974.06;5018144;28;20475;-77
2022/05/09 04:39:09;;;;;;;7.00;4.20;;;10.20;99.90;;;11.10;100.00;98977.00;5019006;28;20466;-76
2022/05/09 04:41:39;;;;;;;5.80;4.53;;;10.20;99.90;;;11.09;100.00;98980.59;5016080;28;20498;-76
2022/05/09 04:44:09;;;;;;;6.17;4.10;;;10.20;99.90;;;11.07;100.00;98978.13;5017221;28;20512;-76
2022/05/09 04:46:40;;;;;;;7.73;3.80;;;10.20;99.90;;;11.08;100.00;98977.16;5018726;28;20453;-76
2022/05/09 04:49:09;;;;;;;6.43;3.90;;;10.20;99.90;;;11.08;100.00;98982.41;5015573;28;20560;-77
2022/05/09 04:51:38;;;;;;;5.63;4.17;;;10.20;99.90;;;11.10;100.00;98980.44;5014769;28;20483;-76
2022/05/09 04:54:09;;;;;;;3.60;3.30;;;10.20;99.90;;;11.13;100.00;98983.72;5016967;28;20541;-76
2022/05/09 04:56:40;;;;;;;6.27;4.10;;;10.20;99.90;;;11.13;100.00;98983.72;5016001;28;20458;-76
2022/05/09 04:59:11;;;;;;;7.90;4.20;;;10.20;99.90;;;11.15;100.00;98986.97;5019712;28;20438;-76
2022/05/09 05:01:40;;;;;;;4.93;3.93;;;10.20;99.90;;;11.14;100.00;98986.16;5017253;28;20539;-76
2022/05/09 05:04:11;;;;;;;4.63;3.90;;;10.20;99.90;;;11.20;100.00;98988.09;5022718;28;20457;-77
2022/05/09 05:06:42;;;;;;;5.47;4.13;;;10.30;99.90;;;11.21;100.00;98987.09;5021955;28;20544;-76
2022/05/09 05:09:14;;;;;;;9.23;4.03;;;10.30;99.90;;;11.21;100.00;98988.94;5019309;28;20469;-76
2022/05/09 05:11:42;;;;;;;6.30;4.50;;;10.30;99.90;;;11.20;100.00;98980.25;5020636;28;20982;-77
2022/05/09 05:14:11;;;;;;;8.50;5.00;;;10.30;99.90;;;11.26;100.00;98984.81;5020030;28;20502;-77
2022/05/09 05:19:31;;;;;;;10.03;4.90;;;10.40;99.90;;;11.35;100.00;98983.78;5020625;28;20466;-77
2022/05/09 05:22:03;;;;;;;6.13;4.67;;;10.40;99.90;;;11.40;100.00;98991.97;5019860;28;20494;-76
2022/05/09 05:24:38;;;;;;;6.17;4.17;;;10.50;99.90;;;11.41;100.00;98984.94;5018631;28;20566;-77
2022/05/09 05:27:07;;;;;;;61.37;27.17;;;10.50;99.90;;;11.43;100.00;98986.41;5020043;28;20473;-77
2022/05/09 05:29:37;;;;;;;12.10;7.20;;;10.60;99.90;;;11.47;100.00;98984.25;5021047;28;20469;-77
2022/05/09 05:32:15;;;;;;;6.20;4.47;;;10.60;99.90;;;11.50;100.00;98989.16;5021525;28;20485;-77
2022/05/09 05:34:45;;;;;;;7.47;4.80;;;10.60;99.90;;;11.56;100.00;98991.09;5018087;28;20466;-78
2022/05/09 05:37:15;;;;;;;6.40;4.40;;;10.60;99.90;;;11.58;100.00;98983.88;5020253;28;20466;-77
2022/05/09 05:39:47;;;;;;;8.43;4.83;;;10.60;99.90;;;11.62;100.00;98990.44;5017781;28;20474;-76
2022/05/09 05:42:19;;;;;;;6.03;4.60;;;10.70;99.90;;;11.68;100.00;98988.91;5020180;28;20503;-77
2022/05/09 05:44:50;;;;;;;26.20;13.63;;;10.70;99.90;;;11.72;100.00;98987.63;5019796;28;20454;-77
2022/05/09 05:47:22;;;;;;;8.00;4.60;;;10.80;99.90;;;11.75;100.00;98989.91;5017825;28;20826;-77
2022/05/09 05:49:53;;;;;;;8.80;4.90;;;10.90;99.90;;;11.78;100.00;98992.19;5018166;28;20900;-77
2022/05/09 05:52:24;;;;;;;7.73;5.20;;;10.90;99.90;;;11.82;100.00;98993.47;5021688;28;20545;-77
2022/05/09 05:54:55;;;;;;;5.90;4.43;;;11.00;99.90;;;11.85;100.00;98995.75;5021333;28;20450;-77
2022/05/09 05:57:27;;;;;;;5.57;4.60;;;11.00;99.90;;;11.91;100.00;99000.28;5021903;28;20876;-77
2022/05/09 05:59:59;;;;;;;6.90;4.60;;;11.00;99.90;;;11.95;100.00;98991.94;5022801;28;20435;-78
2022/05/09 06:02:31;;;;;;;4.83;4.27;;;11.10;99.90;;;12.01;100.00;98998.28;5021397;28;20590;-77
2022/05/09 06:05:01;;;;;;;6.23;5.63;;;11.10;99.90;;;12.05;100.00;98996.94;5020869;28;20450;-77
2022/05/09 06:07:32;;;;;;;8.00;4.87;;;11.20;99.90;;;12.09;100.00;98999.06;5020723;28;20463;-77
2022/05/09 06:10:04;;;;;;;7.43;5.30;;;11.20;99.90;;;12.15;100.00;99000.16;5021786;28;20469;-77
2022/05/09 06:12:35;;;;;;;7.83;5.47;;;11.30;99.90;;;12.21;100.00;99001.28;5020014;28;20467;-77
2022/05/09 06:17:53;;;;;;;7.77;5.03;;;11.30;99.90;;;12.31;100.00;99007.94;5020993;28;20438;-77
2022/05/09 06:20:24;;;;;;;7.00;4.97;;;11.40;99.90;;;12.34;100.00;99007.59;5019626;28;20499;-77
2022/05/09 06:22:56;;;;;;;6.43;4.80;;;11.40;99.90;;;12.39;100.00;99005.25;5018495;28;20499;-77
2022/05/09 06:25:30;;;;;;;7.47;4.90;;;11.50;99.90;;;12.44;100.00;99007.34;5019209;28;20463;-77
2022/05/09 06:28:00;;;;;;;10.20;5.17;;;11.60;99.90;;;12.48;100.00;99009.47;5020346;28;20464;-77
2022/05/09 06:30:31;;;;;;;11.60;4.90;;;11.60;99.90;;;12.52;100.00;99005.50;5017657;28;20595;-78
2022/05/09 06:33:01;;;;;;;8.73;5.40;;;11.80;99.90;;;12.57;100.00;99008.41;5019036;28;20485;-77
2022/05/09 06:35:31;;;;;;;11.33;5.20;;;11.80;99.90;;;12.63;100.00;99006.91;5018426;28;20446;-77
2022/05/09 06:38:05;;;;;;;11.60;5.10;;;11.80;99.90;;;12.69;100.00;99014.06;5021047;28;21195;-78
2022/05/09 06:40:36;;;;;;;8.03;5.80;;;11.90;99.90;;;12.77;100.00;99010.56;5022149;28;20438;-78
2022/05/09 06:43:07;;;;;;;11.70;6.20;;;12.00;99.90;;;12.84;100.00;99008.84;5026264;28;20481;-77
2022/05/09 06:45:38;;;;;;;18.77;5.97;;;12.10;99.90;;;12.92;100.00;99011.38;5024469;28;20463;-77
2022/05/09 06:48:09;;;;;;;13.40;6.00;;;12.10;99.90;;;12.98;100.00;99000.19;5023870;28;20527;-78
2022/05/09 06:50:41;;;;;;;10.20;5.50;;;12.20;99.90;;;13.07;100.00;99005.19;5022791;28;20557;-78
2022/05/09 06:53:13;;;;;;;7.90;5.60;;;12.30;99.90;;;13.18;100.00;99011.03;5020850;28;20974;-77
2022/05/09 06:55:48;;;;;;;10.60;5.80;;;12.40;99.90;;;13.26;100.00;99001.22;5020508;28;20450;-78
2022/05/09 06:58:22;;;;;;;10.27;6.40;;;12.70;99.90;;;13.35;100.00;99005.41;5016760;28;20968;-78
2022/05/09 07:00:52;;;;;;;20.83;9.50;;;12.70;99.90;;;13.45;100.00;99008.59;5023210;28;20573;-78
2022/05/09 07:03:22;;;;;;;12.17;5.80;;;12.80;99.90;;;13.53;100.00;98999.81;5018551;28;20495;-78
2022/05/09 07:05:54;;;;;;;14.83;5.93;;;12.90;99.90;;;13.61;100.00;99013.66;5020025;28;20449;-78
2022/05/09 07:08:29;;;;;;;12.63;6.00;;;13.00;99.90;;;13.70;100.00;99013.56;5018716;28;20463;-77
2022/05/09 07:11:01;;;;;;;12.60;6.20;;;13.00;99.90;;;13.78;100.00;99010.84;5018038;28;20509;-78
2022/05/09 07:13:42;;;;;;;14.30;6.47;;;13.10;99.90;;;13.85;100.00;99003.84;5016665;28;20471;-78
2022/05/09 07:16:13;;;;;;;9.70;5.83;;;13.20;99.90;;;13.93;100.00;99014.25;5017596;28;20490;-78
2022/05/09 07:18:43;;;;;;;9.07;5.23;;;13.40;99.90;;;13.99;100.00;99009.06;5018143;28;20462;-78
2022/05/09 07:21:13;;;;;;;8.23;5.63;;;13.40;99.90;;;14.05;100.00;99005.72;5015120;28;20501;-78
2022/05/09 07:23:43;;;;;;;11.10;5.33;;;13.40;99.90;;;14.13;100.00;99006.59;5018326;28;20469;-77
2022/05/09 07:26:15;;;;;;;12.13;5.53;;;13.50;99.90;;;14.19;100.00;99006.66;5017165;28;20575;-78
2022/05/09 07:28:48;;;;;;;10.53;5.97;;;13.50;99.90;;;14.26;100.00;99006.72;5017313;28;20469;-78
2022/05/09 07:31:19;;;;;;;13.00;5.40;;;13.60;99.90;;;14.32;100.00;99008.63;5014432;28;20521;-77
2022/05/09 07:33:48;;;;;;;59.73;29.00;;;13.60;99.90;;;14.40;100.00;99013.78;5015302;28;20550;-78
2022/05/09 07:36:18;;;;;;;7.40;6.00;;;13.70;99.90;;;14.47;100.00;99019.94;5016707;28;20465;-79
2022/05/09 07:38:48;;;;;;;7.30;4.77;;;13.80;99.90;;;14.52;100.00;99013.09;5015218;28;20517;-78
2022/05/09 07:41:20;;;;;;;12.77;5.33;;;13.80;99.90;;;14.59;100.00;99013.16;5018185;28;20462;-78
2022/05/09 07:43:51;;;;;;;9.13;5.60;;;13.90;99.90;;;14.66;100.00;99015.84;5015845;28;20988;-78
2022/05/09 07:46:23;;;;;;;15.40;5.13;;;14.00;99.90;;;14.71;100.00;99010.84;5018584;28;20477;-78
2022/05/09 07:49:13;;;;;;;7.37;5.50;;;14.00;99.90;;;14.78;100.00;99014.34;5018712;28;20596;-78
2022/05/09 07:51:42;;;;;;;7.43;5.07;;;14.10;99.90;;;14.84;100.00;99014.41;5017797;28;20477;-78
2022/05/09 07:54:13;;;;;;;13.20;6.23;;;14.10;99.90;;;14.91;100.00;99006.53;5017225;28;20704;-78
2022/05/09 07:56:44;;;;;;;9.60;5.23;;;14.20;99.90;;;14.96;100.00;99009.44;5017724;28;20473;-79
2022/05/09 07:59:16;;;;;;;9.10;5.37;;;14.30;99.90;;;15.02;100.00;99008.66;5017167;28;20464;-78
2022/05/09 08:01:46;;;;;;;9.00;5.80;;;14.40;99.90;;;15.07;100.00;99011.53;5013902;28;20486;-78
2022/05/09 08:04:16;;;;;;;37.80;18.03;;;14.40;99.90;;;15.11;100.00;99018.84;5016343;28;20474;-77
2022/05/09 08:06:46;;;;;;;12.40;7.00;;;14.50;99.90;;;15.18;100.00;99013.63;5015623;28;20462;-78
2022/05/09 08:09:16;;;;;;;9.60;5.17;;;14.60;99.90;;;15.24;100.00;99012.84;5016701;28;20462;-77
2022/05/09 08:11:48;;;;;;;19.07;5.93;;;14.70;99.90;;;15.30;100.00;99012.13;5017944;28;20561;-77
2022/05/09 08:14:19;;;;;;;8.40;5.53;;;14.80;99.90;;;15.34;100.00;99008.06;5017342;28;20463;-78
2022/05/09 08:16:49;;;;;;;6.40;4.90;;;14.80;99.90;;;15.39;100.00;99003.03;5016067;28;20466;-79
2022/05/09 08:19:20;;;;;;;10.30;4.90;;;14.80;99.90;;;15.46;100.00;99003.06;5018630;28;20553;-78
2022/05/09 08:21:51;;;;;;;12.67;5.57;;;14.80;99.90;;;15.53;100.00;99001.31;5015118;28;20473;-78
2022/05/09 08:24:29;;;;;;;6.50;4.97;;;14.90;99.90;;;15.60;100.00;98997.72;5014761;28;20475;-77
2022/05/09 08:27:01;;;;;;;57.17;30.00;;;15.10;99.90;;;15.65;100.00;98997.13;5018351;28;20568;-78
2022/05/09 08:29:32;;;;;;;14.13;7.13;;;15.00;99.90;;;15.71;100.00;99000.78;5017425;28;20889;-78
2022/05/09 08:32:02;;;;;;;7.47;5.03;;;15.10;99.90;;;15.76;100.00;99001.81;5015134;28;20502;-78
2022/05/09 08:34:34;;;;;;;34.70;20.90;;;15.20;99.90;;;15.79;100.00;99000.63;5018327;28;20458;-78
2022/05/09 08:37:05;;;;;;;8.30;4.63;;;15.10;99.90;;;15.82;100.00;98998.41;5022035;28;20999;-78
2022/05/09 08:39:36;;;;;;;9.23;4.90;;;15.20;99.90;;;15.86;100.00;98998.84;5022881;28;20447;-78
2022/05/09 08:42:13;;;;;;;7.73;5.23;;;15.20;99.90;;;15.92;100.00;99008.59;5022287;28;20466;-78
2022/05/09 08:45:25;;;;;;;7.07;4.70;;;15.30;99.90;;;15.97;100.00;98993.78;5020609;28;20438;-78
2022/05/09 08:48:31;;;;;;;8.60;5.07;;;15.30;99.90;;;16.04;100.00;99004.38;5023382;28;20446;-78
2022/05/09 08:51:14;;;;;;;6.13;4.63;;;15.40;99.90;;;16.08;100.00;99011.69;5028459;28;20460;-78
2022/05/09 08:53:55;;;;;;;7.10;5.03;;;15.50;99.90;;;16.15;100.00;99000.34;5029124;28;20984;-78
2022/05/09 08:56:27;;;;;;;7.30;3.87;;;15.50;99.90;;;16.19;100.00;99009.50;5027026;28;20441;-78
2022/05/09 08:59:02;;;;;;;7.50;4.97;;;15.60;99.90;;;16.25;100.00;99006.03;5029889;28;20458;-78
2022/05/09 09:01:42;;;;;;;6.70;4.77;;;15.60;99.90;;;16.30;100.00;98998.34;5027206;28;20465;-78
2022/05/09 09:04:22;;;;;;;6.07;4.60;;;15.80;99.90;;;16.38;100.00;99016.66;5027841;28;20853;-78
2022/05/09 09:07:14;;;;;;;10.83;4.63;;;15.80;99.90;;;16.42;100.00;99015.22;5028459;28;20445;-78
2022/05/09 09:10:22;;;;;;;5.80;4.50;;;15.90;99.90;;;16.49;100.00;99002.84;5026235;28;20937;-78
2022/05/09 09:13:19;;;;;;;6.97;4.07;;;15.90;99.90;;;16.55;100.00;98996.78;5022947;28;21017;-79
2022/05/09 09:16:11;;;;;;;9.33;4.23;;;15.90;99.90;;;16.65;100.00;99006.97;5022068;28;20442;-78
2022/05/09 09:19:10;;;;;;;9.40;4.90;;;16.20;99.90;;;16.72;100.00;98999.88;5021726;28;20447;-78
2022/05/09 09:21:54;;;;;;;8.60;4.20;;;16.30;99.90;;;16.82;100.00;98997.63;5023079;28;20494;-78
2022/05/09 09:24:45;;;;;;;6.30;4.20;;;16.30;99.90;;;16.91;100.00;98993.75;5020379;28;20478;-78
2022/05/09 09:27:41;;;;;;;7.07;5.50;;;16.40;99.90;;;17.00;100.00;98989.91;5026155;28;20446;-78
2022/05/09 09:30:16;;;;;;;8.40;4.70;;;16.40;99.90;;;17.05;100.00;98982.16;5027702;28;20482;-78
2022/05/09 09:32:57;;;;;;;10.10;4.30;;;16.50;99.90;;;17.07;100.00;98991.53;5026229;28;20507;-78
2022/05/09 09:35:45;;;;;;;6.90;4.00;;;16.50;99.90;;;17.13;100.00;98994.34;5025590;28;20500;-78
2022/05/09 09:38:34;;;;;;;9.80;5.00;;;16.50;99.90;;;17.17;100.00;98995.56;5025955;28;20439;-78
2022/05/09 09:41:20;;;;;;;10.90;5.17;;;16.50;99.90;;;17.22;100.00;98996.56;5021357;28;20532;-78
2022/05/09 09:44:06;;;;;;;11.07;4.87;;;16.60;99.90;;;17.27;100.00;98994.13;5023910;28;21102;-78
2022/05/09 09:47:01;;;;;;;6.97;4.43;;;16.70;99.90;;;17.31;100.00;98990.06;5020360;28;20857;-78
2022/05/09 09:49:35;;;;;;;8.23;4.60;;;16.70;99.90;;;17.40;100.00;98991.47;5021344;28;20569;-78
2022/05/09 09:52:17;;;;;;;7.37;3.97;;;16.80;99.90;;;17.45;100.00;98989.03;5020671;28;20458;-79
2022/05/09 09:54:56;;;;;;;7.60;4.10;;;16.80;99.90;;;17.48;100.00;98983.31;5023541;28;20448;-78
2022/05/09 09:57:32;;;;;;;7.30;3.90;;;16.90;99.90;;;17.53;100.00;98980.84;5021430;28;20442;-78
2022/05/09 10:00:19;;;;;;;6.47;3.97;;;17.00;99.90;;;17.60;100.00;98971.06;5015994;28;20463;-78
2022/05/09 10:02:51;;;;;;;5.60;3.80;;;17.10;99.90;;;17.71;100.00;98976.75;5021960;28;20462;-78
2022/05/09 10:05:36;;;;;;;5.80;3.47;;;17.20;99.90;;;17.78;100.00;98977.53;5021857;28;20470;-78
2022/05/09 10:08:25;;;;;;;5.83;3.80;;;17.20;99.90;;;17.84;100.00;98969.56;5020405;28;20458;-78
2022/05/09 10:11:05;;;;;;;48.10;28.10;;;17.30;99.90;;;17.91;100.00;98966.91;5022355;28;20521;-77
2022/05/09 10:13:44;;;;;;;5.03;3.50;;;17.40;99.90;;;18.00;98.94;98970.91;5022569;28;20463;-78
2022/05/09 10:16:26;;;;;;;4.77;3.20;;;17.60;99.90;;;18.09;90.44;98961.69;5017794;28;20462;-78
2022/05/09 10:18:56;;;;;;;4.80;3.30;;;17.70;99.90;;;18.19;93.11;98964.69;5019790;28;21031;-78
2022/05/09 10:27:28;;;;;;;5.40;3.00;;;18.00;99.90;;;18.47;88.53;98953.72;5018244;28;20458;-78
2022/05/09 10:30:01;;;;;;;3.90;3.03;;;18.10;99.90;;;18.53;86.11;98951.03;5017313;28;20493;-78
2022/05/09 10:32:45;;;;;;;5.33;3.23;;;18.10;99.50;;;18.65;86.57;98953.81;5017457;28;20469;-77
2022/05/09 10:35:22;;;;;;;6.47;3.50;;;18.20;99.50;;;18.72;85.71;98951.09;5019740;28;20506;-78
2022/05/09 10:38:00;;;;;;;4.33;3.60;;;18.30;99.50;;;18.79;85.82;98949.22;5018579;28;20974;-78
2022/05/09 10:40:37;;;;;;;4.40;3.27;;;18.30;99.50;;;18.85;86.18;98946.50;5019579;28;20461;-77
2022/05/09 10:43:12;;;;;;;10.73;4.30;;;18.40;99.70;;;18.90;84.17;98945.84;5017436;28;20490;-78
2022/05/09 10:45:50;;;;;;;5.53;3.57;;;18.50;99.10;;;18.97;85.92;98941.28;5020553;28;20477;-78
2022/05/09 10:48:29;;;;;;;4.07;3.10;;;18.50;99.60;;;19.04;87.97;98937.56;5019902;28;20519;-78
2022/05/09 10:51:07;;;;;;;6.07;3.87;;;18.60;99.90;;;19.09;86.89;98934.22;5021266;28;20454;-78
2022/05/09 10:53:53;;;;;;;6.43;3.73;;;18.70;99.80;;;19.16;86.85;98929.66;5021160;28;20517;-77
2022/05/09 10:56:30;;;;;;;9.13;3.60;;;18.70;99.70;;;19.23;87.34;98930.41;5022420;28;20444;-77